Time;durP1;ratioP1;P1;durP2;ratioP2;P2;SDS_P1;SDS_P2;PMS_P1;PMS_P2;Temp;Humidity;BMP_temperature;BMP_pressure;BME280_temperature;BME280_humidity;BME280_pressure;Samples;Min_cycle;Max_cycle;Signal;HPM_P1;HPM_P2
2023/08/13 00:00:20;;;;;;;48.50;35.60;;;19.80;99.90;;;;;;4969896;28;20145;-59
2023/08/13 00:02:46;;;;;;;55.17;36.08;;;19.90;99.90;;;;;;4972111;28;20039;-59
2023/08/13 00:05:12;;;;;;;60.72;36.88;;;19.70;99.90;;;;;;4970843;28;20050;-59
2023/08/13 00:07:37;;;;;;;53.28;36.80;;;19.60;99.90;;;;;;4972170;28;20034;-58
2023/08/13 00:10:04;;;;;;;57.28;35.28;;;20.20;99.90;;;;;;4971461;28;20074;-59
2023/08/13 00:12:30;;;;;;;52.17;35.22;;;20.40;99.90;;;;;;4970496;28;20041;-58
2023/08/13 00:14:56;;;;;;;55.75;35.78;;;19.80;99.90;;;;;;4971161;28;20046;-58
2023/08/13 00:17:22;;;;;;;51.72;34.67;;;20.50;99.90;;;;;;4972011;28;20267;-58
2023/08/13 00:19:47;;;;;;;50.17;34.83;;;19.80;99.90;;;;;;4968105;28;20485;-59
2023/08/13 00:22:13;;;;;;;55.30;35.00;;;19.90;99.90;;;;;;4971547;28;20050;-63
2023/08/13 00:24:38;;;;;;;52.97;35.63;;;20.60;99.90;;;;;;4971208;28;20042;-61
2023/08/13 00:27:04;;;;;;;61.65;35.95;;;20.60;99.90;;;;;;4970893;28;20042;-62
2023/08/13 00:29:31;;;;;;;58.22;37.00;;;20.70;99.90;;;;;;4969901;28;20034;-62
2023/08/13 00:31:56;;;;;;;55.92;35.83;;;19.90;99.90;;;;;;4971389;28;20528;-62
2023/08/13 00:34:22;;;;;;;58.65;35.83;;;20.00;99.90;;;;;;4968253;28;20090;-62
2023/08/13 00:36:48;;;;;;;53.38;35.35;;;19.90;99.90;;;;;;4971263;28;20118;-62
2023/08/13 00:39:13;;;;;;;50.83;35.78;;;19.90;99.90;;;;;;4969969;28;20054;-62
2023/08/13 00:41:39;;;;;;;53.88;37.10;;;19.90;99.90;;;;;;4970411;28;20512;-62
2023/08/13 00:44:05;;;;;;;51.33;35.60;;;19.80;99.90;;;;;;4968161;28;20054;-62
2023/08/13 00:46:31;;;;;;;59.47;37.47;;;19.90;99.90;;;;;;4971533;28;20031;-62
2023/08/13 00:48:58;;;;;;;56.88;37.35;;;19.90;99.90;;;;;;4969376;28;20521;-62
2023/08/13 00:51:25;;;;;;;52.45;35.05;;;19.80;99.90;;;;;;4970889;28;20101;-62
2023/08/13 00:53:52;;;;;;;59.67;36.30;;;20.50;99.90;;;;;;4971065;28;20413;-62
2023/08/13 00:56:18;;;;;;;58.78;35.53;;;19.80;99.90;;;;;;4970521;28;20047;-61
2023/08/13 00:58:44;;;;;;;55.10;35.80;;;20.60;99.90;;;;;;4970389;28;20057;-62
2023/08/13 01:01:11;;;;;;;59.95;35.88;;;20.50;99.90;;;;;;4970527;28;20520;-62
2023/08/13 01:03:38;;;;;;;47.83;34.72;;;20.10;99.90;;;;;;4970307;28;20737;-62
2023/08/13 01:06:26;;;;;;;52.95;35.35;;;19.80;99.90;;;;;;4968237;28;20497;-62
2023/08/13 01:09:10;;;;;;;52.00;36.17;;;19.90;99.90;;;;;;4970561;28;20047;-62
2023/08/13 01:11:56;;;;;;;51.95;34.00;;;20.60;99.90;;;;;;4952211;28;20035;-63
2023/08/13 01:14:46;;;;;;;59.10;36.75;;;19.90;99.90;;;;;;4968739;28;20065;-62
2023/08/13 01:17:12;;;;;;;52.90;35.13;;;20.20;99.90;;;;;;4971038;28;20042;-63
2023/08/13 01:19:38;;;;;;;54.63;37.58;;;20.50;99.90;;;;;;4966145;28;20038;-61
2023/08/13 01:22:03;;;;;;;47.53;35.15;;;20.00;99.90;;;;;;4970001;28;20057;-62
2023/08/13 01:24:29;;;;;;;53.67;38.25;;;20.50;99.90;;;;;;4970254;28;20043;-62
2023/08/13 01:27:11;;;;;;;54.15;37.65;;;19.70;99.90;;;;;;4971184;28;20089;-62
2023/08/13 01:29:46;;;;;;;54.58;35.97;;;19.80;99.90;;;;;;4969429;28;20101;-61
2023/08/13 01:32:14;;;;;;;60.45;36.20;;;19.80;99.90;;;;;;4969388;28;20050;-61
2023/08/13 01:34:41;;;;;;;54.33;36.30;;;19.80;99.90;;;;;;4965908;28;20050;-61
2023/08/13 01:37:07;;;;;;;59.60;36.00;;;20.00;99.90;;;;;;4969713;28;20417;-61
2023/08/13 01:39:33;;;;;;;58.17;37.03;;;20.20;99.90;;;;;;4968798;28;20059;-61
2023/08/13 01:41:58;;;;;;;50.22;36.08;;;20.30;99.90;;;;;;4970332;28;20035;-61
2023/08/13 01:44:24;;;;;;;52.55;35.30;;;20.80;99.90;;;;;;4968828;28;20077;-61
2023/08/13 01:46:50;;;;;;;56.38;36.88;;;20.00;99.90;;;;;;4971365;28;20039;-61
2023/08/13 01:49:15;;;;;;;55.55;36.67;;;20.60;99.90;;;;;;4971336;28;20046;-61
2023/08/13 01:51:41;;;;;;;58.45;35.83;;;20.10;99.90;;;;;;4972458;28;20456;-61
2023/08/13 01:54:06;;;;;;;52.20;35.47;;;20.90;99.90;;;;;;4973442;28;20027;-61
2023/08/13 01:56:32;;;;;;;48.42;34.92;;;20.90;99.90;;;;;;4971870;28;20047;-61
2023/08/13 01:58:58;;;;;;;51.10;34.85;;;20.90;99.90;;;;;;4972593;28;20067;-61
2023/08/13 02:01:23;;;;;;;52.03;35.72;;;20.10;99.90;;;;;;4972576;28;20440;-61
2023/08/13 02:03:49;;;;;;;51.95;35.20;;;20.20;99.90;;;;;;4972574;28;20053;-61
2023/08/13 02:06:15;;;;;;;44.78;34.50;;;20.50;99.90;;;;;;4972586;28;20090;-61
2023/08/13 02:08:40;;;;;;;51.25;35.63;;;20.30;99.90;;;;;;4968321;28;20109;-61
2023/08/13 02:11:06;;;;;;;58.88;36.75;;;20.20;99.90;;;;;;4972712;28;20039;-61
2023/08/13 02:13:31;;;;;;;60.20;37.47;;;20.20;99.90;;;;;;4973099;28;20507;-61
2023/08/13 02:16:04;;;;;;;54.55;36.13;;;20.30;99.90;;;;;;4972469;28;20683;-61
2023/08/13 02:18:30;;;;;;;57.83;35.90;;;20.20;99.90;;;;;;4971136;28;20081;-61
2023/08/13 02:20:56;;;;;;;63.10;35.50;;;20.80;99.90;;;;;;4970709;28;20528;-62
2023/08/13 02:23:21;;;;;;;49.05;35.85;;;20.40;99.90;;;;;;4972710;28;20074;-61
2023/08/13 02:25:47;;;;;;;61.60;36.20;;;20.30;99.90;;;;;;4972776;28;20046;-61
2023/08/13 02:28:13;;;;;;;45.10;34.55;;;20.60;99.90;;;;;;4972689;28;20046;-61
2023/08/13 02:30:38;;;;;;;60.85;36.30;;;21.00;99.90;;;;;;4971254;28;20113;-61
2023/08/13 02:33:04;;;;;;;60.33;35.95;;;21.00;99.90;;;;;;4966591;28;20493;-62
2023/08/13 02:35:30;;;;;;;55.28;35.03;;;20.50;99.90;;;;;;4972595;28;20046;-61
2023/08/13 02:37:55;;;;;;;53.50;35.15;;;21.00;99.90;;;;;;4972076;28;20413;-61
2023/08/13 02:40:21;;;;;;;60.83;35.65;;;21.00;99.90;;;;;;4971771;28;20046;-61
2023/08/13 02:42:47;;;;;;;58.13;35.75;;;20.70;99.90;;;;;;4972030;28;20074;-59
2023/08/13 02:45:12;;;;;;;50.90;33.75;;;20.80;99.90;;;;;;4968343;28;20505;-59
2023/08/13 02:47:38;;;;;;;58.20;35.38;;;20.40;99.90;;;;;;4969183;28;20053;-59
2023/08/13 02:50:04;;;;;;;49.25;34.35;;;20.40;99.90;;;;;;4971154;28;20501;-60
2023/08/13 02:52:29;;;;;;;56.08;36.80;;;20.80;99.90;;;;;;4971626;28;20493;-60
2023/08/13 02:54:55;;;;;;;54.55;35.40;;;20.30;99.90;;;;;;4971543;28;20065;-58
2023/08/13 02:57:20;;;;;;;48.80;35.63;;;20.50;99.90;;;;;;4972417;28;20386;-59
2023/08/13 02:59:46;;;;;;;57.83;35.38;;;20.60;99.90;;;;;;4970818;28;20504;-59
2023/08/13 03:02:12;;;;;;;57.90;35.20;;;21.10;99.90;;;;;;4970286;28;20043;-59
2023/08/13 03:04:37;;;;;;;50.00;34.00;;;20.50;99.90;;;;;;4971736;28;20034;-61
2023/08/13 03:07:03;;;;;;;51.47;35.00;;;20.70;99.90;;;;;;4972189;28;20441;-59
2023/08/13 03:09:29;;;;;;;53.13;35.53;;;20.60;99.90;;;;;;4971735;28;20118;-59
2023/08/13 03:11:54;;;;;;;49.67;34.85;;;20.90;99.90;;;;;;4971688;28;20041;-59
2023/08/13 03:14:20;;;;;;;46.65;34.30;;;20.40;99.90;;;;;;4971969;28;20128;-59
2023/08/13 03:16:45;;;;;;;50.08;33.75;;;20.90;99.90;;;;;;4971001;28;20038;-59
2023/08/13 03:19:11;;;;;;;47.85;33.60;;;20.40;99.90;;;;;;4969189;28;20027;-59
2023/08/13 03:21:36;;;;;;;49.83;34.38;;;21.10;99.90;;;;;;4971259;28;20053;-59
2023/08/13 03:24:02;;;;;;;49.47;34.47;;;20.40;99.90;;;;;;4971315;28;20073;-59
2023/08/13 03:26:28;;;;;;;49.47;34.35;;;21.10;99.90;;;;;;4971656;28;20047;-59
2023/08/13 03:28:53;;;;;;;50.20;33.67;;;20.40;99.90;;;;;;4971294;28;20040;-60
2023/08/13 03:31:19;;;;;;;49.30;34.90;;;20.50;99.90;;;;;;4969787;28;20062;-59
2023/08/13 03:33:44;;;;;;;48.85;34.30;;;21.10;99.90;;;;;;4964145;28;20178;-59
2023/08/13 03:36:10;;;;;;;56.72;34.58;;;20.50;99.90;;;;;;4970727;28;20505;-60
2023/08/13 03:38:36;;;;;;;51.00;33.92;;;20.90;99.90;;;;;;4971910;28;20045;-59
2023/08/13 03:41:02;;;;;;;48.28;34.22;;;21.10;99.90;;;;;;4970634;28;20057;-58
2023/08/13 03:43:27;;;;;;;51.17;33.60;;;21.20;99.90;;;;;;4971193;28;20089;-59
2023/08/13 03:45:53;;;;;;;51.50;34.63;;;20.50;99.90;;;;;;4969307;28;20082;-59
2023/08/13 03:48:18;;;;;;;47.30;33.83;;;21.10;99.90;;;;;;4966508;28;20066;-60
2023/08/13 03:50:44;;;;;;;46.67;34.20;;;20.90;99.90;;;;;;4969149;28;20448;-59
2023/08/13 03:53:11;;;;;;;52.47;33.80;;;21.00;99.90;;;;;;4970954;28;20082;-60
2023/08/13 03:55:37;;;;;;;47.45;34.42;;;21.10;99.90;;;;;;4970332;28;20051;-59
2023/08/13 03:58:03;;;;;;;47.78;34.17;;;20.50;99.90;;;;;;4971190;28;20057;-60
2023/08/13 04:00:30;;;;;;;43.90;32.63;;;20.90;99.90;;;;;;4969268;28;20043;-60
2023/08/13 04:02:55;;;;;;;53.85;34.67;;;21.10;99.90;;;;;;4963617;28;20049;-59
2023/08/13 04:05:21;;;;;;;44.30;34.50;;;21.10;99.90;;;;;;4963087;28;20047;-60
2023/08/13 04:07:47;;;;;;;46.28;33.72;;;20.80;99.90;;;;;;4970422;28;20046;-60
2023/08/13 04:10:12;;;;;;;46.53;32.70;;;21.00;99.90;;;;;;4970033;28;20118;-60
2023/08/13 04:12:38;;;;;;;51.78;34.47;;;21.00;99.90;;;;;;4969718;28;20062;-60
2023/08/13 04:15:04;;;;;;;45.80;33.75;;;20.50;99.90;;;;;;4970395;28;20171;-61
2023/08/13 04:17:29;;;;;;;48.90;35.83;;;21.00;99.90;;;;;;4970007;28;20031;-59
2023/08/13 04:19:55;;;;;;;49.63;34.25;;;21.00;99.90;;;;;;4969512;28;20035;-60
2023/08/13 04:22:20;;;;;;;56.38;35.75;;;21.00;99.90;;;;;;4968457;28;20049;-59
2023/08/13 04:24:51;;;;;;;52.13;36.10;;;21.00;99.90;;;;;;4968966;28;20058;-60
2023/08/13 04:27:17;;;;;;;56.42;35.65;;;20.50;99.90;;;;;;4971130;28;20038;-59
2023/08/13 04:29:43;;;;;;;47.47;35.30;;;20.60;99.90;;;;;;4969157;28;20070;-60
2023/08/13 04:32:08;;;;;;;47.92;35.58;;;20.30;99.90;;;;;;4969841;28;20062;-61
2023/08/13 04:34:34;;;;;;;46.20;34.10;;;21.00;99.90;;;;;;4970043;28;20101;-60
2023/08/13 04:36:59;;;;;;;51.67;35.38;;;21.10;99.90;;;;;;4970161;28;20063;-60
2023/08/13 04:39:25;;;;;;;46.75;34.95;;;21.00;99.90;;;;;;4968311;28;20047;-60
2023/08/13 04:41:52;;;;;;;51.38;35.05;;;21.20;99.90;;;;;;4970089;28;20587;-60
2023/08/13 04:44:17;;;;;;;44.47;35.65;;;21.00;99.90;;;;;;4970578;28;20512;-60
2023/08/13 04:46:43;;;;;;;51.42;36.33;;;20.90;99.90;;;;;;4969270;28;20039;-60
2023/08/13 04:49:08;;;;;;;48.33;34.88;;;20.50;99.90;;;;;;4978632;28;20066;-60
2023/08/13 04:51:34;;;;;;;49.50;34.67;;;20.50;99.90;;;;;;4969608;28;20035;-60
2023/08/13 04:53:59;;;;;;;58.60;35.30;;;20.70;99.90;;;;;;4969732;28;20071;-59
2023/08/13 04:56:25;;;;;;;41.92;33.78;;;20.80;99.90;;;;;;4969686;28;20417;-59
2023/08/13 04:58:51;;;;;;;49.97;34.22;;;20.70;99.90;;;;;;4969964;28;20042;-60
2023/08/13 05:01:16;;;;;;;50.47;34.95;;;20.80;99.90;;;;;;4969330;28;20074;-60
2023/08/13 05:03:44;;;;;;;51.28;35.15;;;20.80;99.90;;;;;;4968959;28;20537;-61
2023/08/13 05:06:10;;;;;;;53.92;35.65;;;20.80;99.90;;;;;;4969335;28;20105;-61
2023/08/13 05:08:35;;;;;;;49.83;36.22;;;20.50;99.90;;;;;;4969269;28;20035;-62
2023/08/13 05:11:01;;;;;;;54.28;37.08;;;20.30;99.90;;;;;;4969580;28;20042;-61
2023/08/13 05:13:27;;;;;;;53.05;35.42;;;20.40;99.90;;;;;;4969227;28;20066;-61
2023/08/13 05:15:52;;;;;;;56.53;36.72;;;20.80;99.90;;;;;;4970863;28;20039;-61
2023/08/13 05:18:18;;;;;;;46.42;34.95;;;20.90;99.90;;;;;;4969241;28;20085;-61
2023/08/13 05:20:43;;;;;;;52.53;35.63;;;21.00;99.90;;;;;;4969022;28;20039;-61
2023/08/13 05:23:09;;;;;;;45.47;34.38;;;20.60;99.90;;;;;;4973507;28;20053;-61
2023/08/13 05:25:38;;;;;;;46.38;33.97;;;21.20;99.90;;;;;;4973620;28;20136;-61
2023/08/13 05:28:06;;;;;;;46.85;34.70;;;21.10;99.90;;;;;;4973487;28;20047;-61
2023/08/13 05:30:33;;;;;;;49.40;36.47;;;20.50;99.90;;;;;;4972531;28;20035;-61
2023/08/13 05:32:58;;;;;;;55.20;37.20;;;20.50;99.90;;;;;;4970112;28;20091;-61
2023/08/13 05:35:24;;;;;;;55.38;37.03;;;21.10;99.90;;;;;;4966616;28;20172;-61
2023/08/13 05:37:49;;;;;;;52.05;36.03;;;21.20;99.90;;;;;;4970129;28;20050;-61
2023/08/13 05:40:15;;;;;;;50.03;37.05;;;21.10;99.90;;;;;;4970374;28;20046;-61
2023/08/13 05:42:40;;;;;;;54.40;36.83;;;20.80;99.90;;;;;;4972766;28;20090;-61
2023/08/13 05:45:06;;;;;;;50.25;36.67;;;21.00;99.90;;;;;;4971893;28;20080;-61
2023/08/13 05:47:32;;;;;;;48.00;36.00;;;20.90;99.90;;;;;;4970260;28;20039;-61
2023/08/13 05:49:58;;;;;;;55.15;35.67;;;21.50;99.90;;;;;;4970794;28;20042;-61
2023/08/13 05:52:24;;;;;;;48.03;35.03;;;21.60;99.90;;;;;;4970891;28;20043;-61
2023/08/13 05:54:50;;;;;;;46.13;36.95;;;21.10;99.90;;;;;;4967364;28;20043;-61
2023/08/13 05:57:15;;;;;;;52.17;38.08;;;21.30;99.90;;;;;;4967316;28;20031;-61
2023/08/13 05:59:42;;;;;;;44.38;35.80;;;21.70;99.90;;;;;;4971796;28;20132;-61
2023/08/13 06:02:08;;;;;;;48.78;36.63;;;21.40;99.90;;;;;;4969974;28;20050;-61
2023/08/13 06:04:34;;;;;;;43.13;36.40;;;21.70;99.90;;;;;;4970483;28;20043;-61
2023/08/13 06:07:01;;;;;;;45.20;38.05;;;21.10;99.90;;;;;;4971360;28;20039;-61
2023/08/13 06:09:27;;;;;;;43.88;35.90;;;21.20;99.90;;;;;;4970335;28;20050;-62
2023/08/13 06:11:52;;;;;;;47.08;36.47;;;21.50;99.90;;;;;;4971365;28;20038;-61
2023/08/13 06:14:18;;;;;;;46.08;34.13;;;21.30;99.90;;;;;;4971821;28;20404;-61
2023/08/13 06:16:43;;;;;;;42.42;33.97;;;21.40;99.90;;;;;;4970457;28;20061;-61
2023/08/13 06:19:09;;;;;;;44.42;33.33;;;21.60;99.90;;;;;;4971305;28;20066;-61
2023/08/13 06:21:35;;;;;;;36.90;32.05;;;22.10;99.90;;;;;;4971411;28;20512;-61
2023/08/13 06:24:00;;;;;;;39.03;31.50;;;22.10;99.90;;;;;;4970147;28;20412;-61
2023/08/13 06:26:26;;;;;;;40.95;32.70;;;21.60;99.90;;;;;;4970936;28;20039;-61
2023/08/13 06:28:51;;;;;;;37.30;31.67;;;22.00;99.90;;;;;;4970502;28;20035;-61
2023/08/13 06:31:17;;;;;;;39.78;33.60;;;21.70;99.90;;;;;;4968622;28;20038;-61
2023/08/13 06:33:42;;;;;;;38.05;32.13;;;21.80;99.90;;;;;;4968594;28;20039;-61
2023/08/13 06:36:08;;;;;;;39.70;32.10;;;21.60;99.90;;;;;;4966742;28;20066;-61
2023/08/13 06:38:36;;;;;;;43.35;32.20;;;21.70;99.90;;;;;;4967185;28;20046;-59
2023/08/13 06:41:03;;;;;;;38.05;32.72;;;21.60;99.90;;;;;;4970822;28;20042;-60
2023/08/13 06:43:28;;;;;;;36.90;32.28;;;21.60;99.90;;;;;;4971348;28;20086;-61
2023/08/13 06:45:54;;;;;;;38.97;32.72;;;21.50;99.90;;;;;;4967964;28;20057;-61
2023/08/13 06:48:20;;;;;;;42.60;34.63;;;21.50;99.90;;;;;;4963601;28;20037;-61
2023/08/13 06:50:48;;;;;;;37.75;32.10;;;22.00;99.90;;;;;;4961033;28;20035;-61
2023/08/13 06:53:14;;;;;;;37.72;31.80;;;21.60;99.90;;;;;;4965545;28;20041;-61
2023/08/13 06:55:40;;;;;;;37.88;31.52;;;21.90;99.90;;;;;;4966471;28;20049;-61
2023/08/13 06:58:05;;;;;;;40.95;32.22;;;21.80;99.90;;;;;;4964762;28;20480;-61
2023/08/13 07:00:32;;;;;;;44.78;32.65;;;21.60;99.90;;;;;;4962764;28;20596;-61
2023/08/13 07:02:58;;;;;;;38.58;32.75;;;21.60;99.90;;;;;;4964320;28;20047;-61
2023/08/13 07:05:23;;;;;;;36.63;30.40;;;22.00;55.40;;;;;;4965515;28;20125;-61
2023/08/13 07:07:50;;;;;;;39.47;32.22;;;21.70;1.00;;;;;;4965452;28;20054;-61
2023/08/13 07:10:15;;;;;;;38.47;32.72;;;21.80;1.00;;;;;;4966589;28;20497;-61
2023/08/13 07:12:41;;;;;;;39.00;30.92;;;21.90;99.90;;;;;;4978245;28;20046;-61
2023/08/13 07:15:07;;;;;;;41.22;31.90;;;21.70;99.90;;;;;;4968690;28;20034;-61
2023/08/13 07:17:32;;;;;;;39.17;34.22;;;21.80;99.90;;;;;;4965912;28;20474;-61
2023/08/13 07:19:58;;;;;;;40.08;32.45;;;22.00;99.90;;;;;;4966577;28;20046;-61
2023/08/13 07:22:23;;;;;;;38.75;31.02;;;21.70;99.90;;;;;;4967145;28;21043;-60
2023/08/13 07:24:49;;;;;;;36.15;32.10;;;21.80;99.90;;;;;;4969221;28;20050;-60
2023/08/13 07:27:14;;;;;;;36.40;31.63;;;21.90;99.90;;;;;;4967581;28;20038;-61
2023/08/13 07:29:40;;;;;;;36.55;32.08;;;22.10;90.00;;;;;;4970319;28;20034;-60
2023/08/13 07:32:06;;;;;;;38.55;33.13;;;22.20;1.00;;;;;;4967976;28;20042;-60
2023/08/13 07:34:31;;;;;;;36.20;31.83;;;22.30;1.00;;;;;;4961012;28;20081;-60
2023/08/13 07:36:57;;;;;;;39.75;31.50;;;22.10;1.00;;;;;;4981377;28;20051;-59
2023/08/13 07:39:23;;;;;;;39.22;32.58;;;22.30;99.90;;;;;;4968004;28;20515;-60
2023/08/13 07:41:49;;;;;;;34.72;29.65;;;22.00;99.90;;;;;;4969540;28;20480;-60
2023/08/13 07:44:15;;;;;;;34.25;28.55;;;22.30;42.80;;;;;;4967855;28;20514;-60
2023/08/13 07:46:41;;;;;;;36.17;29.27;;;22.50;99.90;;;;;;4963259;28;20051;-60
2023/08/13 07:49:07;;;;;;;36.45;31.42;;;22.40;14.60;;;;;;4968967;28;20039;-60
2023/08/13 07:51:33;;;;;;;37.97;30.60;;;22.70;1.00;;;;;;4968708;28;20043;-60
2023/08/13 07:53:59;;;;;;;39.53;29.10;;;22.90;23.80;;;;;;4969894;28;20146;-60
2023/08/13 07:56:24;;;;;;;34.75;30.45;;;23.10;99.90;;;;;;4964883;28;20046;-61
2023/08/13 07:58:50;;;;;;;32.08;28.75;;;23.00;70.50;;;;;;4965009;28;20464;-61
2023/08/13 08:01:17;;;;;;;38.20;30.20;;;23.10;1.00;;;;;;4967300;28;20054;-60
2023/08/13 08:03:44;;;;;;;33.00;28.10;;;23.10;99.90;;;;;;4968789;28;20046;-60
2023/08/13 08:06:12;;;;;;;37.33;27.85;;;23.10;61.70;;;;;;4967024;28;20044;-61
2023/08/13 08:08:38;;;;;;;30.00;26.58;;;23.30;1.00;;;;;;4965602;28;20559;-60
2023/08/13 08:11:03;;;;;;;29.10;26.08;;;23.50;1.00;;;;;;4966867;28;20039;-60
2023/08/13 08:13:31;;;;;;;35.03;27.60;;;23.80;16.70;;;;;;4969723;28;20050;-60
2023/08/13 08:15:57;;;;;;;32.92;29.38;;;23.70;99.90;;;;;;4969396;28;20501;-60
2023/08/13 08:18:22;;;;;;;33.17;28.33;;;23.70;99.90;;;;;;4966722;28;20060;-60
2023/08/13 08:20:48;;;;;;;36.22;28.63;;;23.80;33.00;;;;;;4967433;28;20050;-60
2023/08/13 08:23:14;;;;;;;33.60;29.52;;;23.70;99.90;;;;;;4966218;28;20057;-60
2023/08/13 08:25:40;;;;;;;32.00;28.50;;;23.40;99.90;;;;;;4968201;28;20031;-60
2023/08/13 08:28:05;;;;;;;31.45;26.27;;;23.00;99.90;;;;;;4969128;28;20085;-60
2023/08/13 08:30:31;;;;;;;28.98;25.30;;;23.30;99.90;;;;;;4965855;28;20062;-61
2023/08/13 08:32:56;;;;;;;25.10;22.35;;;23.90;1.00;;;;;;4966936;28;20035;-61
2023/08/13 08:35:22;;;;;;;29.80;23.63;;;24.00;99.90;;;;;;4963697;28;20049;-60
2023/08/13 08:37:47;;;;;;;27.80;23.80;;;24.40;99.90;;;;;;4966765;28;20055;-60
2023/08/13 08:40:13;;;;;;;25.27;22.77;;;24.40;61.40;;;;;;4968042;28;20651;-61
2023/08/13 08:42:41;;;;;;;29.27;25.25;;;24.50;1.00;;;;;;4967189;28;20051;-61
2023/08/13 08:45:10;;;;;;;33.65;26.13;;;24.10;99.90;;;;;;4967216;28;20125;-61
2023/08/13 08:47:42;;;;;;;29.85;24.67;;;24.10;99.90;;;;;;4964207;28;20501;-60
2023/08/13 08:50:10;;;;;;;33.00;26.58;;;24.10;99.90;;;;;;4966895;28;20053;-61
2023/08/13 08:52:38;;;;;;;31.52;26.23;;;23.80;99.90;;;;;;4966022;28;20042;-61
2023/08/13 08:55:04;;;;;;;29.58;24.38;;;23.70;99.90;;;;;;4962965;28;20042;-61
2023/08/13 08:57:30;;;;;;;27.45;24.38;;;23.50;94.30;;;;;;4966049;28;20039;-61
2023/08/13 08:59:55;;;;;;;30.23;27.13;;;23.60;99.90;;;;;;4959149;28;20049;-61
2023/08/13 09:02:21;;;;;;;36.45;29.58;;;23.60;99.90;;;;;;4965561;28;20390;-61
2023/08/13 09:04:46;;;;;;;39.75;30.83;;;23.40;99.90;;;;;;4962527;28;20103;-61
2023/08/13 09:07:12;;;;;;;36.90;28.48;;;23.60;99.90;;;;;;4965319;28;20051;-62
2023/08/13 09:09:37;;;;;;;38.08;29.25;;;24.10;99.90;;;;;;4953463;28;20394;-62
2023/08/13 09:12:03;;;;;;;32.47;26.42;;;24.00;99.90;;;;;;4961750;28;20134;-62
2023/08/13 09:14:29;;;;;;;35.75;28.83;;;23.80;99.90;;;;;;4960708;28;20985;-62
2023/08/13 09:16:56;;;;;;;30.40;27.15;;;23.90;99.90;;;;;;4958749;28;20385;-62
2023/08/13 09:19:24;;;;;;;29.67;26.48;;;23.90;99.90;;;;;;4952430;28;20035;-62
2023/08/13 09:21:52;;;;;;;38.58;29.02;;;24.20;99.90;;;;;;4953748;28;20138;-62
2023/08/13 09:24:18;;;;;;;35.65;28.48;;;24.10;99.90;;;;;;4953675;28;20161;-62
2023/08/13 09:26:45;;;;;;;33.00;29.35;;;24.00;99.90;;;;;;4950554;28;20047;-62
2023/08/13 09:29:11;;;;;;;32.78;29.30;;;23.90;96.00;;;;;;4955882;28;20039;-62
2023/08/13 09:31:37;;;;;;;35.88;30.70;;;23.60;99.90;;;;;;4960117;28;20573;-62
2023/08/13 09:34:03;;;;;;;31.02;27.23;;;23.70;99.90;;;;;;4961965;28;20117;-61
2023/08/13 09:36:29;;;;;;;29.80;26.27;;;24.00;99.90;;;;;;4962640;28;20106;-62
2023/08/13 09:38:56;;;;;;;27.92;24.13;;;24.50;99.90;;;;;;4963628;28;20046;-62
2023/08/13 09:41:22;;;;;;;27.20;24.02;;;24.70;99.90;;;;;;4962048;28;20091;-62
2023/08/13 09:43:49;;;;;;;35.47;25.90;;;25.10;99.90;;;;;;4964488;28;20078;-61
2023/08/13 09:46:22;;;;;;;30.25;22.70;;;25.30;86.70;;;;;;4963667;28;20386;-62
2023/08/13 09:48:53;;;;;;;30.77;26.05;;;25.30;1.00;;;;;;4961382;28;20046;-62
2023/08/13 09:51:21;;;;;;;29.77;24.45;;;25.00;1.00;;;;;;4961627;28;20769;-61
2023/08/13 09:53:52;;;;;;;30.02;24.92;;;25.10;1.00;;;;;;4961638;28;20094;-63
2023/08/13 09:56:20;;;;;;;28.05;25.20;;;24.80;1.00;;;;;;4963470;28;20039;-61
2023/08/13 09:58:46;;;;;;;29.20;26.40;;;24.70;99.90;;;;;;4961832;28;20034;-61
2023/08/13 10:01:13;;;;;;;25.60;22.98;;;24.60;99.90;;;;;;4962266;28;20047;-61
2023/08/13 10:03:39;;;;;;;30.48;27.30;;;24.20;99.90;;;;;;4961174;28;20046;-62
2023/08/13 10:06:06;;;;;;;27.80;24.27;;;23.90;99.90;;;;;;4960832;28;20074;-62
2023/08/13 10:08:32;;;;;;;26.92;24.23;;;24.10;99.90;;;;;;4970251;28;20038;-62
2023/08/13 10:10:58;;;;;;;27.65;24.80;;;24.10;99.90;;;;;;4968073;28;20047;-65
2023/08/13 10:13:24;;;;;;;28.30;25.40;;;23.90;99.90;;;;;;4981199;28;20050;-65
2023/08/13 10:15:50;;;;;;;26.60;24.02;;;23.90;99.90;;;;;;4967754;28;20621;-65
2023/08/13 10:18:16;;;;;;;28.38;25.48;;;23.90;99.90;;;;;;4968294;28;20042;-64
2023/08/13 10:20:46;;;;;;;26.88;24.00;;;23.80;99.90;;;;;;4965630;28;20050;-64
2023/08/13 10:23:12;;;;;;;31.48;24.40;;;23.80;99.90;;;;;;4966024;28;20133;-67
2023/08/13 10:25:39;;;;;;;27.23;24.15;;;23.90;99.90;;;;;;4964722;28;20117;-65
2023/08/13 10:28:21;;;;;;;27.10;23.48;;;23.80;99.90;;;;;;4968000;28;20041;-65
2023/08/13 10:30:47;;;;;;;24.00;21.60;;;24.10;99.90;;;;;;4965545;28;20069;-64
2023/08/13 10:33:14;;;;;;;21.88;19.65;;;24.50;99.90;;;;;;4966995;28;20039;-64
2023/08/13 10:35:40;;;;;;;23.92;21.40;;;24.40;99.90;;;;;;4965043;28;20038;-63
2023/08/13 10:38:07;;;;;;;24.13;21.88;;;24.40;99.90;;;;;;4964030;28;20059;-63
2023/08/13 10:40:34;;;;;;;25.13;22.27;;;24.20;83.00;;;;;;4968264;28;20050;-63
2023/08/13 10:43:00;;;;;;;24.05;21.83;;;24.40;42.40;;;;;;4968260;28;20182;-64
2023/08/13 10:45:28;;;;;;;23.95;21.67;;;24.50;51.90;;;;;;4965154;28;20053;-64
2023/08/13 10:47:55;;;;;;;25.35;22.90;;;24.60;28.90;;;;;;4967411;28;20045;-64
2023/08/13 10:50:37;;;;;;;23.50;21.42;;;24.30;1.00;;;;;;4967405;28;20100;-64
2023/08/13 10:53:08;;;;;;;23.70;21.63;;;24.20;1.00;;;;;;4964595;28;20050;-64
2023/08/13 10:55:36;;;;;;;24.38;21.80;;;24.50;1.00;;;;;;4965445;28;20038;-64
2023/08/13 10:58:01;;;;;;;23.27;21.00;;;24.50;1.00;;;;;;4970093;28;20540;-63
2023/08/13 11:00:28;;;;;;;22.70;20.60;;;24.70;1.00;;;;;;4969379;28;20038;-63
2023/08/13 11:02:59;;;;;;;23.27;20.98;;;24.50;1.00;;;;;;4961930;28;20062;-61
2023/08/13 11:05:26;;;;;;;23.48;21.45;;;24.40;1.00;;;;;;4962477;28;20496;-61
2023/08/13 11:07:52;;;;;;;24.42;22.17;;;24.40;1.00;;;;;;4963462;28;20047;-61
2023/08/13 11:10:19;;;;;;;24.00;21.60;;;24.40;1.00;;;;;;4965401;28;20034;-60
2023/08/13 11:12:46;;;;;;;23.95;21.85;;;24.70;1.00;;;;;;4968396;28;20039;-61
2023/08/13 11:15:12;;;;;;;24.13;21.90;;;24.70;1.00;;;;;;4967821;28;20050;-61
2023/08/13 11:17:48;;;;;;;26.10;23.17;;;24.90;1.00;;;;;;4970229;28;20047;-61
2023/08/13 11:20:17;;;;;;;25.60;22.92;;;25.00;1.00;;;;;;4962792;28;20096;-61
2023/08/13 11:22:43;;;;;;;25.52;22.88;;;25.10;1.00;;;;;;4967384;28;20042;-61
2023/08/13 11:25:09;;;;;;;27.35;24.45;;;25.20;1.00;;;;;;4968440;28;20043;-63
2023/08/13 11:27:35;;;;;;;26.52;23.98;;;25.30;1.00;;;;;;4964873;28;20039;-62
2023/08/13 11:30:01;;;;;;;27.10;24.45;;;25.10;1.00;;;;;;4962849;28;20049;-62
2023/08/13 11:32:27;;;;;;;25.63;23.15;;;25.00;1.00;;;;;;4960541;28;20039;-61
2023/08/13 11:34:52;;;;;;;29.30;26.25;;;25.00;1.00;;;;;;4961953;28;20081;-61
2023/08/13 11:37:18;;;;;;;29.35;26.25;;;24.90;1.00;;;;;;4966824;28;20456;-61
2023/08/13 11:39:44;;;;;;;28.70;25.80;;;24.80;1.00;;;;;;4967689;28;20081;-61
2023/08/13 11:42:10;;;;;;;31.77;28.42;;;24.40;1.00;;;;;;4957989;28;20050;-61
2023/08/13 11:44:37;;;;;;;30.67;27.52;;;24.40;1.00;;;;;;4960070;28;20054;-62
2023/08/13 11:47:05;;;;;;;31.42;28.30;;;24.20;1.00;;;;;;4967348;28;20070;-61
2023/08/13 11:49:40;;;;;;;31.98;28.75;;;24.10;1.00;;;;;;4966596;28;20037;-62
2023/08/13 11:52:06;;;;;;;29.65;26.55;;;23.90;1.00;;;;;;4963098;28;20039;-62
2023/08/13 11:54:34;;;;;;;31.50;26.88;;;23.80;1.00;;;;;;4968813;28;20105;-62
2023/08/13 11:56:59;;;;;;;30.05;26.83;;;24.20;26.80;;;;;;4965089;28;20038;-63
2023/08/13 11:59:26;;;;;;;30.52;27.48;;;24.20;69.70;;;;;;4963363;28;20100;-61
2023/08/13 12:01:53;;;;;;;32.22;28.55;;;24.10;43.60;;;;;;4962640;28;20386;-61
2023/08/13 12:04:21;;;;;;;31.08;27.88;;;24.10;24.90;;;;;;4961977;28;20050;-61
2023/08/13 12:06:47;;;;;;;27.80;25.17;;;24.10;36.20;;;;;;4962317;28;20051;-62
2023/08/13 12:09:13;;;;;;;28.80;26.10;;;24.00;8.40;;;;;;4963918;28;20093;-62
2023/08/13 12:11:42;;;;;;;28.65;26.05;;;24.00;1.00;;;;;;4961948;28;20030;-61
2023/08/13 12:14:09;;;;;;;30.25;27.25;;;24.00;1.00;;;;;;4965609;28;20035;-62
2023/08/13 12:16:35;;;;;;;29.35;26.52;;;24.10;18.10;;;;;;4964486;28;20141;-65
2023/08/13 12:19:04;;;;;;;28.73;25.92;;;24.20;3.40;;;;;;4964528;28;20601;-63
2023/08/13 12:21:30;;;;;;;28.40;25.67;;;24.20;19.60;;;;;;4966032;28;20042;-64
2023/08/13 12:23:56;;;;;;;26.98;24.48;;;24.50;31.10;;;;;;4966489;28;20433;-64